Latest Weather Observations for McArthur River Mine

IDD60801

Issued at 7:05 am CST Tuesday 25 November 2014 (issued every 30 minutes, with the page automatically refreshed every 10 minutes)

About weather observations | Map of weather stations | Latest weather observations for NT | Other Formats
Station Details ID: 014704 Name: MCARTHUR RIVER MINE AIRPORT Lat: -16.44 Lon: 136.08 Height: 40.0 m
Data from the previous 72 hours. | See also: Recent months at McArthur River Mine
Date/Time
CST
Temp
°C
App
Temp
°C
Dew
Point
Rel
Hum
%
Delta-T
°C
Wind Press
QNH
hPa
Press
MSL
hPa
Rain
since 9 am
mm
Dir
 
Spd
km/h
Gust
km/h
Spd
kts
Gust
kts
25/07:00am 27.5 33.7 26.3 93 0.9 SSE 6 7 3 4 1009.4 - 2.8
25/06:30am 26.2 32.2 26.0 99 0.1 SE 6 9 3 5 1009.1 - 2.8
25/06:00am 25.2 30.1 25.2 100 0.0 W 9 13 5 7 1008.2 1007.9 2.8
25/05:30am 25.0 30.1 25.0 100 0.0 WSW 7 9 4 5 1008.5 - 2.8
25/05:00am 25.2 30.5 25.2 100 0.0 WSW 7 9 4 5 1008.2 - 2.8
25/04:30am 25.3 30.4 25.0 98 0.2 W 7 9 4 5 1008.0 - 2.8
25/04:00am 25.7 31.8 25.0 96 0.5 ESE 2 7 1 4 1008.3 - 2.8
25/03:30am 25.9 30.8 24.3 91 1.1 N 6 7 3 4 1008.2 - 2.8
25/03:00am 26.5 31.4 24.7 90 1.3 NNE 7 13 4 7 1008.3 1008.0 2.8
25/02:30am 26.8 31.0 25.4 92 1.0 NE 13 20 7 11 1008.6 - 2.8
25/02:00am 27.6 31.0 24.0 81 2.5 NE 13 22 7 12 1008.7 - 2.8
25/01:30am 27.9 32.5 25.9 89 1.4 NE 13 22 7 12 1008.9 - 2.8
25/01:00am 27.9 31.3 24.7 83 2.2 NE 15 22 8 12 1008.8 - 2.8
25/12:30am 27.6 32.1 25.2 87 1.7 ENE 11 15 6 8 1009.4 - 2.8
25/12:05am 27.6 31.3 24.6 84 2.1 ENE 13 17 7 9 1009.5 - 2.8
25/12:00am 27.6 31.5 24.2 82 2.4 ENE 11 17 6 9 1009.5 1009.2 2.8
 
Date/Time
CST
Temp
°C
App
Temp
°C
Dew
Point
Rel
Hum
%
Delta-T
°C
Wind Press
QNH
hPa
Press
MSL
hPa
Rain
since 9 am
mm
Dir
 
Spd
km/h
Gust
km/h
Spd
kts
Gust
kts
24/11:46pm 27.5 32.2 24.9 86 1.8 NE 9 13 5 7 1009.7 - 2.8
24/11:42pm 27.5 32.3 25.1 87 1.7 NE 9 13 5 7 1009.7 - 2.8
24/11:30pm 27.3 32.6 25.9 92 1.0 NE 9 11 5 6 1009.6 - 2.8
24/11:26pm 27.3 32.5 25.7 91 1.1 NE 9 11 5 6 1009.6 - 2.8
24/11:00pm 27.2 32.8 26.3 95 0.6 NE 9 11 5 6 1009.7 - 2.8
24/10:30pm 26.9 33.3 26.9 100 0.0 NE 7 9 4 5 1009.9 - 2.8
24/10:00pm 27.1 33.3 26.6 97 0.4 NE 7 11 4 6 1009.8 - 2.8
24/09:30pm 26.6 33.0 26.6 100 0.0 E 6 9 3 5 1009.7 - 2.8
24/09:00pm 26.5 32.8 26.5 100 0.0 NE 6 7 3 4 1009.2 1008.9 2.8
24/08:30pm 26.7 33.1 26.7 100 0.0 NNE 6 9 3 5 1008.5 - 2.8
24/08:00pm 26.6 33.0 26.6 100 0.0 NE 6 7 3 4 1008.2 - 2.8
24/07:30pm 26.3 32.3 26.3 100 0.0 E 7 11 4 6 1008.4 - 2.8
24/07:00pm 26.1 31.6 26.1 100 0.0 ENE 9 15 5 8 1008.5 - 2.8
24/06:30pm 26.1 31.0 25.8 98 0.2 ENE 11 17 6 9 1008.3 - 2.8
24/06:00pm 26.2 29.7 25.5 96 0.5 ENE 17 26 9 14 1008.5 1008.2 2.8
24/05:30pm 26.6 30.9 26.6 100 0.0 NNE 17 28 9 15 1007.5 - 2.8
24/05:00pm 26.4 31.7 26.4 100 0.0 W 11 19 6 10 1006.6 - 2.8
24/04:30pm 29.2 30.0 24.5 76 3.3 SW 28 35 15 19 1006.1 - 1.6
24/04:06pm 31.4 34.6 25.0 69 4.5 NE 17 26 9 14 1004.9 - 1.4
24/04:00pm 30.4 33.1 25.0 73 3.8 NE 20 32 11 17 1005.1 - 1.4
24/03:47pm 31.5 30.7 21.7 56 6.6 E 28 50 15 27 1005.3 - 1.0
24/03:46pm 32.9 32.4 21.4 50 7.8 E 26 50 14 27 1005.1 - 0.4
24/03:30pm 39.0 40.0 17.7 28 14.0 NNE 9 15 5 8 1005.0 - 0.0
24/03:00pm 39.0 40.8 18.3 30 13.7 W 6 19 3 10 1005.5 1005.2 0.0
24/02:30pm 38.6 39.7 17.9 29 13.6 N 9 17 5 9 1006.0 - 0.0
24/02:00pm 37.8 37.9 18.3 32 12.8 N 15 22 8 12 1006.3 - 0.0
24/01:30pm 37.4 36.4 18.9 34 12.3 N 22 32 12 17 1006.9 - 0.0
24/01:00pm 36.8 37.5 18.8 34 11.9 N 13 22 7 12 1007.6 - 0.0
24/12:30pm 37.3 37.1 19.3 35 12.0 NNW 19 24 10 13 1008.5 - 0.0
24/12:00pm 36.8 37.7 19.3 36 11.6 NNE 13 24 7 13 1009.4 1009.1 0.0
24/11:30am 36.5 36.1 19.4 36 11.4 NE 20 30 11 16 1009.9 - 0.0
24/11:00am 35.4 35.9 20.1 40 10.2 N 17 28 9 15 1010.2 - 0.0
24/10:30am 35.3 35.8 20.0 40 10.2 N 17 26 9 14 1010.4 - 0.0
24/10:00am 34.8 36.8 21.5 46 9.0 NNE 13 20 7 11 1010.6 - 0.0
24/09:30am 33.9 35.6 21.7 49 8.3 NNE 15 26 8 14 1010.8 - 0.0
24/09:00am 32.4 36.5 23.9 61 5.9 NNW 9 15 5 8 1010.9 1010.6 0.0
24/08:30am 31.9 35.6 24.5 65 5.2 NW 13 22 7 12 1010.4 - 0.0
24/08:00am 30.9 34.4 24.8 70 4.3 N 15 22 8 12 1010.2 - 0.0
24/07:30am 29.9 34.1 25.4 77 3.2 N 13 22 7 12 1010.1 - 0.0
24/07:00am 29.3 34.2 25.3 79 2.8 N 9 13 5 7 1009.7 - 0.0
24/06:30am 28.5 33.9 25.1 82 2.4 N 6 9 3 5 1009.4 - 0.0
24/06:00am 27.9 34.0 25.1 85 2.0 NNW 2 7 1 4 1008.9 1008.6 0.0
24/05:30am 27.9 33.0 24.7 83 2.2 NNW 6 7 3 4 1008.4 - 0.0
24/05:00am 28.2 33.3 25.0 83 2.2 N 7 9 4 5 1008.3 - 0.0
24/04:30am 28.3 33.8 24.7 81 2.5 N 4 7 2 4 1008.4 - 0.0
24/04:00am 28.6 33.5 24.6 79 2.8 NE 7 11 4 6 1008.6 - 0.0
24/03:30am 28.6 33.7 24.6 79 2.8 NE 6 9 3 5 1008.5 - 0.0
24/03:00am 28.9 33.6 24.9 79 2.8 N 9 13 5 7 1008.1 1007.8 0.0
24/02:30am 29.0 33.1 24.6 77 3.1 NE 11 17 6 9 1008.2 - 0.0
24/02:00am 29.1 33.2 24.6 76 3.1 ENE 11 15 6 8 1008.5 - 0.0
24/01:30am 29.4 32.4 24.0 72 3.7 ENE 15 20 8 11 1008.9 - 0.0
24/01:00am 29.8 33.8 23.7 70 4.2 ENE 9 13 5 7 1009.0 - 0.0
24/12:55am 29.9 33.8 23.6 69 4.4 NE 9 13 5 7 1009.0 - 0.0
24/12:41am 30.1 33.8 23.3 67 4.7 E 9 13 5 7 1009.5 - 0.0
24/12:30am 30.2 33.5 22.6 63 5.2 NE 9 13 5 7 1009.6 - 0.0
24/12:00am 30.3 32.5 21.9 60 5.7 N 13 19 7 10 1009.2 1008.9 0.0
 
Date/Time
CST
Temp
°C
App
Temp
°C
Dew
Point
Rel
Hum
%
Delta-T
°C
Wind Press
QNH
hPa
Press
MSL
hPa
Rain
since 9 am
mm
Dir
 
Spd
km/h
Gust
km/h
Spd
kts
Gust
kts
23/11:30pm 30.5 32.4 21.3 58 6.2 E 13 20 7 11 1010.4 - 0.0
23/11:00pm 31.0 32.9 19.7 51 7.4 NNE 9 15 5 8 1010.4 - 0.0
23/10:30pm 31.4 31.5 18.4 46 8.4 NE 15 22 8 12 1010.4 - 0.0
23/10:00pm 31.7 31.5 16.8 40 9.4 NE 13 19 7 10 1010.2 - 0.0
23/09:30pm 32.1 31.6 16.0 38 10.1 NNE 13 19 7 10 1009.9 - 0.0
23/09:00pm 32.5 31.4 16.3 37 10.2 NE 17 24 9 13 1009.4 1009.1 0.0
23/08:30pm 32.7 32.6 16.9 38 10.0 NE 13 22 7 12 1008.9 - 0.0
23/08:00pm 33.2 32.5 16.5 36 10.6 NE 15 22 8 12 1008.2 - 0.0
23/07:30pm 33.5 32.1 15.5 34 11.2 NNE 17 28 9 15 1007.8 - 0.0
23/07:00pm 33.6 33.8 19.3 43 9.4 N 17 28 9 15 1007.5 - 0.0
23/06:30pm 34.5 35.0 19.3 40 10.0 NE 15 20 8 11 1007.5 - 0.0
23/06:00pm 34.3 34.4 20.3 44 9.4 ENE 20 32 11 17 1007.6 1007.3 0.0
23/05:30pm 35.2 34.7 19.1 38 10.6 ENE 20 30 11 16 1007.3 - 0.0
23/05:00pm 34.5 33.5 19.7 41 9.8 ENE 24 35 13 19 1007.0 - 0.0
23/04:30pm 37.0 34.6 16.5 29 13.1 NE 24 41 13 22 1006.9 - 0.0
23/04:00pm 36.3 33.5 17.4 32 12.2 NE 28 43 15 23 1007.1 - 0.0
23/03:30pm 39.7 39.9 14.7 23 15.8 ESE 7 15 4 8 1006.8 - 0.0
23/03:00pm 39.8 39.9 15.4 23 15.6 WNW 9 13 5 7 1007.4 1007.1 0.0
23/02:30pm 39.4 39.4 15.1 24 15.4 NNW 9 17 5 9 1008.0 - 0.0
23/02:00pm 38.5 38.3 13.7 23 15.4 NNW 7 13 4 7 1008.4 - 0.0
23/01:30pm 37.9 35.7 13.2 23 15.2 NNE 17 22 9 12 1009.0 - 0.0
23/01:00pm 38.2 38.7 16.5 28 14.0 N 9 13 5 7 1009.5 - 0.0
23/12:30pm 37.5 38.2 17.0 30 13.2 NNE 9 17 5 9 1010.1 - 0.0
23/12:00pm 37.2 37.2 17.2 30 13.0 NNE 13 20 7 11 1010.7 1010.4 0.0
23/11:30am 35.1 36.3 18.2 36 11.0 NNE 9 15 5 8 1011.1 - 0.0
23/11:00am 33.9 35.0 18.8 41 9.9 N 11 15 6 8 1011.3 - 0.0
23/10:30am 33.9 35.3 19.6 43 9.5 N 11 17 6 9 1011.5 - 0.0
23/10:00am 33.7 36.3 20.1 44 9.1 NNE 6 9 3 5 1011.8 - 0.0
23/09:30am 32.5 35.9 22.0 54 7.2 N 7 15 4 8 1012.2 - 0.0
23/09:00am 31.2 34.6 23.3 63 5.5 NW 11 13 6 7 1012.0 1011.7 0.0
23/08:30am 30.2 33.3 23.6 67 4.6 NNW 13 17 7 9 1012.1 - 0.0
23/08:00am 29.9 33.8 23.6 69 4.4 NNW 9 15 5 8 1012.1 - 0.0
23/07:30am 29.2 33.1 22.9 69 4.3 NW 7 11 4 6 1011.9 - 0.0
23/07:00am 28.4 31.9 21.9 68 4.4 NW 6 11 3 6 1011.6 - 0.0
23/06:30am 26.9 30.5 22.1 75 3.2 W 6 6 3 3 1011.1 - 0.0
23/06:00am 26.9 30.5 22.3 76 3.1 NNW 7 9 4 5 1010.6 1010.3 0.0
23/05:30am 27.0 30.7 22.6 77 3.0 NNW 7 9 4 5 1010.3 - 0.0
23/05:00am 27.0 30.9 22.6 77 3.0 NNW 6 7 3 4 1010.3 - 0.0
23/04:30am 26.9 30.5 22.3 76 3.1 N 7 9 4 5 1009.9 - 0.0
23/04:00am 27.1 30.6 22.1 74 3.4 N 7 11 4 6 1009.7 - 0.0
23/03:30am 27.3 32.0 22.0 73 3.6 CALM 0 0 0 0 1009.5 - 0.0
23/03:00am 27.3 31.9 21.8 72 3.7 CALM 0 6 0 3 1009.6 1009.3 0.0
23/02:30am 27.7 32.5 22.2 72 3.7 CALM 0 6 0 3 1009.6 - 0.0
23/02:00am 27.5 31.2 22.2 73 3.6 NW 6 9 3 5 1009.3 - 0.0
23/01:30am 27.8 31.4 22.1 71 3.8 SW 6 7 3 4 1009.7 - 0.0
23/01:00am 28.1 32.1 22.1 70 4.0 SW 4 7 2 4 1010.3 - 0.0
23/12:30am 28.3 31.8 22.1 69 4.2 S 7 9 4 5 1010.8 - 0.0
23/12:17am 28.3 31.8 22.1 69 4.2 SE 7 11 4 6 1011.1 - 0.0
23/12:05am 28.5 31.5 22.0 68 4.4 SSE 9 13 5 7 1011.4 - 0.0
23/12:00am 28.5 31.5 22.0 68 4.4 SSE 9 13 5 7 1011.4 1011.1 0.0
 
Date/Time
CST
Temp
°C
App
Temp
°C
Dew
Point
Rel
Hum
%
Delta-T
°C
Wind Press
QNH
hPa
Press
MSL
hPa
Rain
since 9 am
mm
Dir
 
Spd
km/h
Gust
km/h
Spd
kts
Gust
kts
22/11:30pm 29.0 30.9 22.0 66 4.7 SE 15 24 8 13 1011.9 - 0.0
22/11:00pm 29.7 31.0 21.6 61 5.4 SE 17 26 9 14 1012.3 - 0.0
22/10:30pm 30.4 30.9 20.9 57 6.3 SE 19 28 10 15 1012.2 - 0.0
22/10:00pm 32.0 32.7 19.6 47 8.2 ESE 15 20 8 11 1012.0 - 0.0
22/09:30pm 32.3 32.9 19.5 46 8.4 NNE 15 22 8 12 1010.5 - 0.0
22/09:00pm 32.7 33.0 18.8 43 9.1 NE 15 24 8 13 1010.2 1009.9 0.0
22/08:48pm 32.8 33.4 18.6 43 9.2 NE 13 22 7 12 1009.9 - 0.0
22/08:34pm 33.0 33.1 18.4 42 9.5 NE 15 22 8 12 1009.6 - 0.0
22/08:30pm 33.1 33.3 18.5 42 9.5 NE 15 22 8 12 1009.5 - 0.0
22/08:00pm 33.7 33.7 18.2 39 10.1 ENE 15 26 8 14 1009.5 - 0.0
22/07:30pm 34.6 33.7 17.8 37 10.9 NNE 19 28 10 15 1008.5 - 0.0
22/07:00pm 35.4 35.0 18.0 35 11.3 NNE 17 26 9 14 1007.9 - 0.0
22/06:30pm 36.7 36.0 18.3 34 12.1 NNE 19 32 10 17 1007.4 - 0.0
22/06:00pm 38.0 36.6 17.9 30 13.2 NNE 22 35 12 19 1006.9 1006.6 0.0
22/05:30pm 39.4 39.7 14.4 22 15.7 NNE 6 9 3 5 1006.6 - 0.0
22/05:00pm 39.7 39.5 14.7 23 15.8 NNE 9 20 5 11 1006.5 - 0.0
22/04:30pm 40.0 39.5 14.9 22 15.9 N 11 19 6 10 1006.6 - 0.0
22/04:00pm 39.3 38.5 15.0 24 15.4 NNW 13 20 7 11 1007.0 - 0.0
22/03:30pm 38.6 38.6 16.2 26 14.4 E 11 19 6 10 1007.5 - 0.0
22/03:00pm 40.2 40.6 16.4 25 15.4 NE 9 20 5 11 1007.7 1007.4 0.0
22/02:30pm 38.9 38.6 16.5 26 14.4 WNW 13 20 7 11 1007.9 - 0.0
22/02:00pm 38.5 38.8 17.8 29 13.6 NW 13 20 7 11 1008.5 - 0.0
22/01:30pm 38.2 38.4 17.6 30 13.4 WNW 13 19 7 10 1009.0 - 0.0
22/01:00pm 38.3 39.7 18.7 31 13.0 SW 9 15 5 8 1009.8 - 0.0
22/12:30pm 36.7 37.6 18.3 34 12.1 NNW 11 15 6 8 1010.5 - 0.0
22/12:00pm 37.0 38.2 19.0 34 11.9 ENE 11 19 6 10 1010.8 1010.5 0.0
22/11:30am 34.8 36.4 19.2 39 10.3 NW 9 13 5 7 1011.5 - 0.0
22/11:00am 34.4 35.8 19.6 41 9.8 NNW 11 17 6 9 1012.0 - 0.0
22/10:30am 34.3 35.8 18.8 40 10.2 SE 9 19 5 10 1012.7 - 0.0
22/10:00am 33.9 36.9 21.3 47 8.5 NNE 7 17 4 9 1013.0 - 0.0
22/09:30am 33.6 37.1 22.1 51 7.9 N 7 15 4 8 1013.0 - 0.0
22/09:00am 32.4 36.7 23.3 58 6.3 S 6 11 3 6 1013.5 1013.2 0.0
22/08:30am 31.4 36.5 25.0 69 4.5 N 7 15 4 8 1013.5 - 0.0
22/08:00am 30.7 36.5 26.0 76 3.4 N 7 13 4 7 1013.1 - 0.0
22/07:30am 29.2 35.2 26.4 85 2.0 NNE 7 9 4 5 1012.9 - 0.0

Other Formats:

Comma delimited format used in spreadsheet applications
http://www.bom.gov.au/fwo/IDD60801/IDD60801.94239.axf

JavaScript Object Notation format (JSON) in row-major order
http://www.bom.gov.au/fwo/IDD60801/IDD60801.94239.json